sensor_id;sensor_type;location;lat;lon;timestamp;temperature;humidity
35363;DHT22;21463;47.480;8.214;2022-09-09T00:00:05;21.40;61.50
35363;DHT22;21463;47.480;8.214;2022-09-09T00:01:43;21.40;61.50
35363;DHT22;21463;47.480;8.214;2022-09-09T00:03:16;21.40;61.50
35363;DHT22;21463;47.480;8.214;2022-09-09T00:04:30;21.40;61.60
35363;DHT22;21463;47.480;8.214;2022-09-09T00:05:42;21.30;61.50
35363;DHT22;21463;47.480;8.214;2022-09-09T00:08:58;21.40;61.40
35363;DHT22;21463;47.480;8.214;2022-09-09T00:10:30;21.40;62.00
35363;DHT22;21463;47.480;8.214;2022-09-09T00:13:14;21.40;61.50
35363;DHT22;21463;47.480;8.214;2022-09-09T00:14:31;21.40;61.50
35363;DHT22;21463;47.480;8.214;2022-09-09T00:16:08;21.40;61.40
35363;DHT22;21463;47.480;8.214;2022-09-09T00:20:42;21.40;61.40
35363;DHT22;21463;47.480;8.214;2022-09-09T00:22:20;21.40;61.40
35363;DHT22;21463;47.480;8.214;2022-09-09T00:23:28;21.40;61.40
35363;DHT22;21463;47.480;8.214;2022-09-09T00:24:49;21.40;61.30
35363;DHT22;21463;47.480;8.214;2022-09-09T00:26:01;21.40;61.30
35363;DHT22;21463;47.480;8.214;2022-09-09T00:28:20;21.40;61.30
35363;DHT22;21463;47.480;8.214;2022-09-09T00:29:35;21.40;61.30
35363;DHT22;21463;47.480;8.214;2022-09-09T00:30:41;21.30;61.30
35363;DHT22;21463;47.480;8.214;2022-09-09T00:31:43;21.40;61.20
35363;DHT22;21463;47.480;8.214;2022-09-09T00:32:47;21.30;61.20
35363;DHT22;21463;47.480;8.214;2022-09-09T00:33:50;21.30;61.20
35363;DHT22;21463;47.480;8.214;2022-09-09T00:35:03;21.40;61.30
35363;DHT22;21463;47.480;8.214;2022-09-09T00:36:14;21.30;61.20
35363;DHT22;21463;47.480;8.214;2022-09-09T00:37:22;21.30;61.20
35363;DHT22;21463;47.480;8.214;2022-09-09T00:38:33;21.40;61.20
35363;DHT22;21463;47.480;8.214;2022-09-09T00:39:42;21.40;61.20
35363;DHT22;21463;47.480;8.214;2022-09-09T00:40:52;21.30;61.10
35363;DHT22;21463;47.480;8.214;2022-09-09T00:42:20;21.30;61.20
35363;DHT22;21463;47.480;8.214;2022-09-09T00:43:31;21.40;61.20
35363;DHT22;21463;47.480;8.214;2022-09-09T00:44:37;21.40;61.20
35363;DHT22;21463;47.480;8.214;2022-09-09T00:48:20;21.40;61.20
35363;DHT22;21463;47.480;8.214;2022-09-09T00:49:47;21.40;61.10
35363;DHT22;21463;47.480;8.214;2022-09-09T00:51:06;21.40;61.20
35363;DHT22;21463;47.480;8.214;2022-09-09T00:52:30;21.40;61.70
35363;DHT22;21463;47.480;8.214;2022-09-09T00:54:04;21.30;61.10
35363;DHT22;21463;47.480;8.214;2022-09-09T00:55:19;21.40;61.30
35363;DHT22;21463;47.480;8.214;2022-09-09T00:56:30;21.30;61.20
35363;DHT22;21463;47.480;8.214;2022-09-09T00:57:36;21.40;61.20
35363;DHT22;21463;47.480;8.214;2022-09-09T00:58:39;21.30;61.10
35363;DHT22;21463;47.480;8.214;2022-09-09T00:59:48;21.30;61.10
35363;DHT22;21463;47.480;8.214;2022-09-09T01:01:05;21.30;61.10
35363;DHT22;21463;47.480;8.214;2022-09-09T01:02:37;21.40;61.20
35363;DHT22;21463;47.480;8.214;2022-09-09T01:04:13;21.30;61.20
35363;DHT22;21463;47.480;8.214;2022-09-09T01:06:53;21.30;61.20
35363;DHT22;21463;47.480;8.214;2022-09-09T01:08:01;21.40;61.20
35363;DHT22;21463;47.480;8.214;2022-09-09T01:09:32;21.30;61.10
35363;DHT22;21463;47.480;8.214;2022-09-09T01:10:50;21.30;61.10
35363;DHT22;21463;47.480;8.214;2022-09-09T01:12:09;21.40;61.10
35363;DHT22;21463;47.480;8.214;2022-09-09T01:13:30;21.40;61.20
35363;DHT22;21463;47.480;8.214;2022-09-09T01:15:41;21.40;61.70
35363;DHT22;21463;47.480;8.214;2022-09-09T01:16:47;21.30;61.10
35363;DHT22;21463;47.480;8.214;2022-09-09T01:18:12;21.30;61.10
35363;DHT22;21463;47.480;8.214;2022-09-09T01:19:27;21.40;61.20
35363;DHT22;21463;47.480;8.214;2022-09-09T01:22:04;21.40;61.10
35363;DHT22;21463;47.480;8.214;2022-09-09T01:23:37;21.30;61.10
35363;DHT22;21463;47.480;8.214;2022-09-09T01:26:42;21.30;61.10
35363;DHT22;21463;47.480;8.214;2022-09-09T01:27:59;21.30;61.10
35363;DHT22;21463;47.480;8.214;2022-09-09T01:29:04;21.40;61.10
35363;DHT22;21463;47.480;8.214;2022-09-09T01:30:14;21.30;61.00
35363;DHT22;21463;47.480;8.214;2022-09-09T01:31:23;21.30;60.90
35363;DHT22;21463;47.480;8.214;2022-09-09T01:32:39;21.40;61.00
35363;DHT22;21463;47.480;8.214;2022-09-09T01:33:46;21.30;61.00
35363;DHT22;21463;47.480;8.214;2022-09-09T01:34:50;21.30;61.00
35363;DHT22;21463;47.480;8.214;2022-09-09T01:37:07;21.30;60.90
35363;DHT22;21463;47.480;8.214;2022-09-09T01:38:10;21.30;61.00
35363;DHT22;21463;47.480;8.214;2022-09-09T01:39:13;21.30;60.90
35363;DHT22;21463;47.480;8.214;2022-09-09T01:40:16;21.40;61.00
35363;DHT22;21463;47.480;8.214;2022-09-09T01:41:19;21.30;61.00
35363;DHT22;21463;47.480;8.214;2022-09-09T01:42:27;21.40;61.00
35363;DHT22;21463;47.480;8.214;2022-09-09T01:43:30;21.40;61.00
35363;DHT22;21463;47.480;8.214;2022-09-09T01:44:33;21.30;60.90
35363;DHT22;21463;47.480;8.214;2022-09-09T01:45:37;21.40;61.00
35363;DHT22;21463;47.480;8.214;2022-09-09T01:46:40;21.30;61.00
35363;DHT22;21463;47.480;8.214;2022-09-09T01:47:51;21.40;61.00
35363;DHT22;21463;47.480;8.214;2022-09-09T01:49:04;21.40;61.00
35363;DHT22;21463;47.480;8.214;2022-09-09T01:50:08;21.30;61.00
35363;DHT22;21463;47.480;8.214;2022-09-09T01:51:13;21.30;61.00
35363;DHT22;21463;47.480;8.214;2022-09-09T01:52:16;21.30;60.90
35363;DHT22;21463;47.480;8.214;2022-09-09T01:53:19;21.40;61.00
35363;DHT22;21463;47.480;8.214;2022-09-09T01:54:25;21.40;61.00
35363;DHT22;21463;47.480;8.214;2022-09-09T01:55:39;21.30;61.40
35363;DHT22;21463;47.480;8.214;2022-09-09T01:57:06;21.30;61.00
35363;DHT22;21463;47.480;8.214;2022-09-09T01:58:27;21.30;61.00
35363;DHT22;21463;47.480;8.214;2022-09-09T02:02:56;21.30;61.00
35363;DHT22;21463;47.480;8.214;2022-09-09T02:05:41;21.30;61.10
35363;DHT22;21463;47.480;8.214;2022-09-09T02:06:56;21.30;61.00
35363;DHT22;21463;47.480;8.214;2022-09-09T02:08:20;21.30;61.00
35363;DHT22;21463;47.480;8.214;2022-09-09T02:09:32;21.30;61.00
35363;DHT22;21463;47.480;8.214;2022-09-09T02:10:47;21.40;61.10
35363;DHT22;21463;47.480;8.214;2022-09-09T02:12:23;21.30;61.00
35363;DHT22;21463;47.480;8.214;2022-09-09T02:13:32;21.30;61.00
35363;DHT22;21463;47.480;8.214;2022-09-09T02:14:41;21.40;61.00
35363;DHT22;21463;47.480;8.214;2022-09-09T02:15:55;21.30;60.90
35363;DHT22;21463;47.480;8.214;2022-09-09T02:17:03;21.40;61.00
35363;DHT22;21463;47.480;8.214;2022-09-09T02:18:51;21.30;61.00
35363;DHT22;21463;47.480;8.214;2022-09-09T02:20:07;21.30;61.00
35363;DHT22;21463;47.480;8.214;2022-09-09T02:21:24;21.40;61.00
35363;DHT22;21463;47.480;8.214;2022-09-09T02:22:28;21.30;61.00
35363;DHT22;21463;47.480;8.214;2022-09-09T02:23:33;21.30;60.90
35363;DHT22;21463;47.480;8.214;2022-09-09T02:24:39;21.40;61.00
35363;DHT22;21463;47.480;8.214;2022-09-09T02:25:58;21.30;60.90
35363;DHT22;21463;47.480;8.214;2022-09-09T02:27:03;21.30;61.00
35363;DHT22;21463;47.480;8.214;2022-09-09T02:28:09;21.30;61.00
35363;DHT22;21463;47.480;8.214;2022-09-09T02:29:19;21.30;61.00
35363;DHT22;21463;47.480;8.214;2022-09-09T02:30:25;21.30;61.00
35363;DHT22;21463;47.480;8.214;2022-09-09T02:31:33;21.30;61.00
35363;DHT22;21463;47.480;8.214;2022-09-09T02:32:42;21.30;61.00
35363;DHT22;21463;47.480;8.214;2022-09-09T02:34:06;21.30;61.00
35363;DHT22;21463;47.480;8.214;2022-09-09T02:35:15;21.30;61.10
35363;DHT22;21463;47.480;8.214;2022-09-09T02:36:22;21.30;61.10
35363;DHT22;21463;47.480;8.214;2022-09-09T02:37:29;21.30;61.10
35363;DHT22;21463;47.480;8.214;2022-09-09T02:38:39;21.30;61.10
35363;DHT22;21463;47.480;8.214;2022-09-09T02:39:47;21.30;61.10
35363;DHT22;21463;47.480;8.214;2022-09-09T02:40:53;21.30;61.00
35363;DHT22;21463;47.480;8.214;2022-09-09T02:41:56;21.30;61.00
35363;DHT22;21463;47.480;8.214;2022-09-09T02:43:05;21.30;61.00
35363;DHT22;21463;47.480;8.214;2022-09-09T02:44:14;21.30;61.00
35363;DHT22;21463;47.480;8.214;2022-09-09T02:45:25;21.30;61.00
35363;DHT22;21463;47.480;8.214;2022-09-09T02:46:32;21.30;61.00
35363;DHT22;21463;47.480;8.214;2022-09-09T02:47:39;21.30;61.00
35363;DHT22;21463;47.480;8.214;2022-09-09T02:50:25;21.30;61.00
35363;DHT22;21463;47.480;8.214;2022-09-09T02:51:48;21.30;61.10
35363;DHT22;21463;47.480;8.214;2022-09-09T02:53:19;21.30;61.10
35363;DHT22;21463;47.480;8.214;2022-09-09T02:54:31;21.30;61.10
35363;DHT22;21463;47.480;8.214;2022-09-09T02:55:43;21.30;61.10
35363;DHT22;21463;47.480;8.214;2022-09-09T02:56:52;21.30;61.00
35363;DHT22;21463;47.480;8.214;2022-09-09T02:58:03;21.30;61.00
35363;DHT22;21463;47.480;8.214;2022-09-09T02:59:09;21.30;61.10
35363;DHT22;21463;47.480;8.214;2022-09-09T03:00:13;21.30;61.00
35363;DHT22;21463;47.480;8.214;2022-09-09T03:01:16;21.30;61.10
35363;DHT22;21463;47.480;8.214;2022-09-09T03:02:19;21.30;61.10
35363;DHT22;21463;47.480;8.214;2022-09-09T03:03:27;21.30;61.10
35363;DHT22;21463;47.480;8.214;2022-09-09T03:04:31;21.30;61.10
35363;DHT22;21463;47.480;8.214;2022-09-09T03:05:33;21.30;61.60
35363;DHT22;21463;47.480;8.214;2022-09-09T03:06:36;21.30;61.60
35363;DHT22;21463;47.480;8.214;2022-09-09T03:07:48;21.30;61.20
35363;DHT22;21463;47.480;8.214;2022-09-09T03:08:54;21.30;61.70
35363;DHT22;21463;47.480;8.214;2022-09-09T03:10:00;21.30;61.20
35363;DHT22;21463;47.480;8.214;2022-09-09T03:11:03;21.30;61.20
35363;DHT22;21463;47.480;8.214;2022-09-09T03:12:10;21.30;61.10
35363;DHT22;21463;47.480;8.214;2022-09-09T03:13:13;21.30;61.10
35363;DHT22;21463;47.480;8.214;2022-09-09T03:14:17;21.30;61.10
35363;DHT22;21463;47.480;8.214;2022-09-09T03:15:23;21.30;61.10
35363;DHT22;21463;47.480;8.214;2022-09-09T03:16:26;21.30;61.10
35363;DHT22;21463;47.480;8.214;2022-09-09T03:17:29;21.30;61.10
35363;DHT22;21463;47.480;8.214;2022-09-09T03:18:32;21.30;61.10
35363;DHT22;21463;47.480;8.214;2022-09-09T03:19:36;21.30;61.20
35363;DHT22;21463;47.480;8.214;2022-09-09T03:20:42;21.30;61.20
35363;DHT22;21463;47.480;8.214;2022-09-09T03:21:46;21.30;61.20
35363;DHT22;21463;47.480;8.214;2022-09-09T03:22:48;21.30;61.20
35363;DHT22;21463;47.480;8.214;2022-09-09T03:23:51;21.30;61.20
35363;DHT22;21463;47.480;8.214;2022-09-09T03:24:54;21.30;61.20
35363;DHT22;21463;47.480;8.214;2022-09-09T03:25:57;21.30;61.20
35363;DHT22;21463;47.480;8.214;2022-09-09T03:27:09;21.40;61.30
35363;DHT22;21463;47.480;8.214;2022-09-09T03:28:14;21.30;61.20
35363;DHT22;21463;47.480;8.214;2022-09-09T03:29:18;21.30;61.30
35363;DHT22;21463;47.480;8.214;2022-09-09T03:30:27;21.30;61.20
35363;DHT22;21463;47.480;8.214;2022-09-09T03:31:31;21.30;61.30
35363;DHT22;21463;47.480;8.214;2022-09-09T03:32:34;21.30;61.30
35363;DHT22;21463;47.480;8.214;2022-09-09T03:33:55;21.30;61.30
35363;DHT22;21463;47.480;8.214;2022-09-09T03:34:58;21.40;61.30
35363;DHT22;21463;47.480;8.214;2022-09-09T03:36:01;21.30;61.30
35363;DHT22;21463;47.480;8.214;2022-09-09T03:37:04;21.30;61.30
35363;DHT22;21463;47.480;8.214;2022-09-09T03:38:07;21.30;61.30
35363;DHT22;21463;47.480;8.214;2022-09-09T03:39:11;21.30;61.30
35363;DHT22;21463;47.480;8.214;2022-09-09T03:40:16;21.30;61.30
35363;DHT22;21463;47.480;8.214;2022-09-09T03:41:24;21.40;61.30
35363;DHT22;21463;47.480;8.214;2022-09-09T03:42:26;21.30;61.30
35363;DHT22;21463;47.480;8.214;2022-09-09T03:43:30;21.30;61.40
35363;DHT22;21463;47.480;8.214;2022-09-09T03:44:33;21.30;61.30
35363;DHT22;21463;47.480;8.214;2022-09-09T03:45:37;21.30;61.40
35363;DHT22;21463;47.480;8.214;2022-09-09T03:46:39;21.30;61.30
35363;DHT22;21463;47.480;8.214;2022-09-09T03:47:41;21.30;61.40
35363;DHT22;21463;47.480;8.214;2022-09-09T03:48:44;21.30;61.40
35363;DHT22;21463;47.480;8.214;2022-09-09T03:49:47;21.30;61.30
35363;DHT22;21463;47.480;8.214;2022-09-09T03:50:53;21.30;61.40
35363;DHT22;21463;47.480;8.214;2022-09-09T03:51:56;21.30;61.40
35363;DHT22;21463;47.480;8.214;2022-09-09T03:52:59;21.30;61.40
35363;DHT22;21463;47.480;8.214;2022-09-09T03:54:01;21.30;61.40
35363;DHT22;21463;47.480;8.214;2022-09-09T03:55:07;21.40;61.40
35363;DHT22;21463;47.480;8.214;2022-09-09T03:56:11;21.30;61.40
35363;DHT22;21463;47.480;8.214;2022-09-09T03:57:13;21.30;61.40
35363;DHT22;21463;47.480;8.214;2022-09-09T03:58:19;21.30;61.40
35363;DHT22;21463;47.480;8.214;2022-09-09T03:59:22;21.30;61.40
35363;DHT22;21463;47.480;8.214;2022-09-09T04:00:25;21.30;61.40
35363;DHT22;21463;47.480;8.214;2022-09-09T04:01:29;21.30;61.40
35363;DHT22;21463;47.480;8.214;2022-09-09T04:02:31;21.30;61.40
35363;DHT22;21463;47.480;8.214;2022-09-09T04:03:34;21.30;61.40
35363;DHT22;21463;47.480;8.214;2022-09-09T04:04:37;21.30;61.40
35363;DHT22;21463;47.480;8.214;2022-09-09T04:05:39;21.30;61.40
35363;DHT22;21463;47.480;8.214;2022-09-09T04:06:44;21.30;61.40
35363;DHT22;21463;47.480;8.214;2022-09-09T04:07:47;21.30;61.40
35363;DHT22;21463;47.480;8.214;2022-09-09T04:08:49;21.30;61.40
35363;DHT22;21463;47.480;8.214;2022-09-09T04:09:54;21.40;61.50
35363;DHT22;21463;47.480;8.214;2022-09-09T04:10:57;21.30;61.40
35363;DHT22;21463;47.480;8.214;2022-09-09T04:12:01;21.30;61.40
35363;DHT22;21463;47.480;8.214;2022-09-09T04:13:05;21.30;61.50
35363;DHT22;21463;47.480;8.214;2022-09-09T04:14:07;21.30;61.50
35363;DHT22;21463;47.480;8.214;2022-09-09T04:15:11;21.40;61.50
35363;DHT22;21463;47.480;8.214;2022-09-09T04:16:14;21.30;61.50
35363;DHT22;21463;47.480;8.214;2022-09-09T04:17:18;21.30;61.50
35363;DHT22;21463;47.480;8.214;2022-09-09T04:18:20;21.30;61.50
35363;DHT22;21463;47.480;8.214;2022-09-09T04:19:23;21.30;61.50
35363;DHT22;21463;47.480;8.214;2022-09-09T04:20:25;21.30;61.50
35363;DHT22;21463;47.480;8.214;2022-09-09T04:21:28;21.30;61.50
35363;DHT22;21463;47.480;8.214;2022-09-09T04:22:31;21.30;61.50
35363;DHT22;21463;47.480;8.214;2022-09-09T04:23:34;21.40;61.50
35363;DHT22;21463;47.480;8.214;2022-09-09T04:24:37;21.40;61.60
35363;DHT22;21463;47.480;8.214;2022-09-09T04:25:47;21.40;61.60
35363;DHT22;21463;47.480;8.214;2022-09-09T04:26:50;21.30;61.50
35363;DHT22;21463;47.480;8.214;2022-09-09T04:27:57;21.30;61.50
35363;DHT22;21463;47.480;8.214;2022-09-09T04:29:01;21.30;61.50
35363;DHT22;21463;47.480;8.214;2022-09-09T04:30:03;21.40;62.10
35363;DHT22;21463;47.480;8.214;2022-09-09T04:31:12;21.30;61.50
35363;DHT22;21463;47.480;8.214;2022-09-09T04:32:19;21.30;61.50
35363;DHT22;21463;47.480;8.214;2022-09-09T04:33:24;21.30;61.50
35363;DHT22;21463;47.480;8.214;2022-09-09T04:34:29;21.30;61.50
35363;DHT22;21463;47.480;8.214;2022-09-09T04:35:32;21.30;61.60
35363;DHT22;21463;47.480;8.214;2022-09-09T04:36:35;21.30;61.50
35363;DHT22;21463;47.480;8.214;2022-09-09T04:37:40;21.40;61.60
35363;DHT22;21463;47.480;8.214;2022-09-09T04:38:42;21.40;61.60
35363;DHT22;21463;47.480;8.214;2022-09-09T04:39:46;21.30;61.60
35363;DHT22;21463;47.480;8.214;2022-09-09T04:40:51;21.30;61.60
35363;DHT22;21463;47.480;8.214;2022-09-09T04:41:56;21.30;61.60
35363;DHT22;21463;47.480;8.214;2022-09-09T04:43:00;21.40;61.70
35363;DHT22;21463;47.480;8.214;2022-09-09T04:44:02;21.30;61.60
35363;DHT22;21463;47.480;8.214;2022-09-09T04:45:07;21.40;61.60
35363;DHT22;21463;47.480;8.214;2022-09-09T04:46:10;21.30;61.60
35363;DHT22;21463;47.480;8.214;2022-09-09T04:47:13;21.40;61.60
35363;DHT22;21463;47.480;8.214;2022-09-09T04:48:17;21.30;61.60
35363;DHT22;21463;47.480;8.214;2022-09-09T04:49:19;21.30;61.60
35363;DHT22;21463;47.480;8.214;2022-09-09T04:50:22;21.30;61.60
35363;DHT22;21463;47.480;8.214;2022-09-09T04:51:31;21.30;61.60
35363;DHT22;21463;47.480;8.214;2022-09-09T04:52:36;21.30;61.70
35363;DHT22;21463;47.480;8.214;2022-09-09T04:53:39;21.40;61.70
35363;DHT22;21463;47.480;8.214;2022-09-09T04:54:42;21.30;61.60
35363;DHT22;21463;47.480;8.214;2022-09-09T04:55:45;21.30;61.60
35363;DHT22;21463;47.480;8.214;2022-09-09T04:56:50;21.30;61.60
35363;DHT22;21463;47.480;8.214;2022-09-09T04:57:53;21.30;61.60
35363;DHT22;21463;47.480;8.214;2022-09-09T04:58:56;21.30;61.60
35363;DHT22;21463;47.480;8.214;2022-09-09T05:00:07;21.40;61.70
35363;DHT22;21463;47.480;8.214;2022-09-09T05:01:15;21.30;61.60
35363;DHT22;21463;47.480;8.214;2022-09-09T05:02:20;21.30;61.60
35363;DHT22;21463;47.480;8.214;2022-09-09T05:03:22;21.30;61.60
35363;DHT22;21463;47.480;8.214;2022-09-09T05:04:25;21.30;61.60
35363;DHT22;21463;47.480;8.214;2022-09-09T05:05:27;21.30;61.70
35363;DHT22;21463;47.480;8.214;2022-09-09T05:06:30;21.30;61.70
35363;DHT22;21463;47.480;8.214;2022-09-09T05:07:35;21.30;61.70
35363;DHT22;21463;47.480;8.214;2022-09-09T05:08:39;21.30;61.70
35363;DHT22;21463;47.480;8.214;2022-09-09T05:09:42;21.30;61.70
35363;DHT22;21463;47.480;8.214;2022-09-09T05:10:44;21.30;61.70
35363;DHT22;21463;47.480;8.214;2022-09-09T05:11:47;21.30;61.70
35363;DHT22;21463;47.480;8.214;2022-09-09T05:12:58;21.30;61.70
35363;DHT22;21463;47.480;8.214;2022-09-09T05:14:03;21.30;61.70
35363;DHT22;21463;47.480;8.214;2022-09-09T05:15:07;21.30;61.70
35363;DHT22;21463;47.480;8.214;2022-09-09T05:16:10;21.30;61.70
35363;DHT22;21463;47.480;8.214;2022-09-09T05:17:13;21.30;61.70
35363;DHT22;21463;47.480;8.214;2022-09-09T05:18:17;21.30;61.70
35363;DHT22;21463;47.480;8.214;2022-09-09T05:19:19;21.30;61.70
35363;DHT22;21463;47.480;8.214;2022-09-09T05:20:23;21.30;61.70
35363;DHT22;21463;47.480;8.214;2022-09-09T05:21:26;21.30;61.70
35363;DHT22;21463;47.480;8.214;2022-09-09T05:22:28;21.30;61.70
35363;DHT22;21463;47.480;8.214;2022-09-09T05:23:33;21.30;61.70
35363;DHT22;21463;47.480;8.214;2022-09-09T05:24:36;21.30;61.70
35363;DHT22;21463;47.480;8.214;2022-09-09T05:25:40;21.30;61.70
35363;DHT22;21463;47.480;8.214;2022-09-09T05:26:43;21.30;61.70
35363;DHT22;21463;47.480;8.214;2022-09-09T05:27:46;21.30;61.70
35363;DHT22;21463;47.480;8.214;2022-09-09T05:28:49;21.30;61.70
35363;DHT22;21463;47.480;8.214;2022-09-09T05:29:52;21.30;61.70
35363;DHT22;21463;47.480;8.214;2022-09-09T05:31:03;21.30;61.80
35363;DHT22;21463;47.480;8.214;2022-09-09T05:32:11;21.30;61.80
35363;DHT22;21463;47.480;8.214;2022-09-09T05:33:18;21.30;61.80
35363;DHT22;21463;47.480;8.214;2022-09-09T05:34:21;21.30;61.80
35363;DHT22;21463;47.480;8.214;2022-09-09T05:35:25;21.40;61.80
35363;DHT22;21463;47.480;8.214;2022-09-09T05:36:28;21.30;61.70
35363;DHT22;21463;47.480;8.214;2022-09-09T05:37:31;21.30;61.70
35363;DHT22;21463;47.480;8.214;2022-09-09T05:38:34;21.30;61.80
35363;DHT22;21463;47.480;8.214;2022-09-09T05:39:37;21.30;61.80
35363;DHT22;21463;47.480;8.214;2022-09-09T05:40:47;21.30;61.80
35363;DHT22;21463;47.480;8.214;2022-09-09T05:41:54;21.40;61.80
35363;DHT22;21463;47.480;8.214;2022-09-09T05:43:00;21.30;61.80
35363;DHT22;21463;47.480;8.214;2022-09-09T05:44:05;21.30;61.80
35363;DHT22;21463;47.480;8.214;2022-09-09T05:45:12;21.30;61.80
35363;DHT22;21463;47.480;8.214;2022-09-09T05:46:20;21.30;61.80
35363;DHT22;21463;47.480;8.214;2022-09-09T05:47:25;21.30;61.80
35363;DHT22;21463;47.480;8.214;2022-09-09T05:48:34;21.40;61.80
35363;DHT22;21463;47.480;8.214;2022-09-09T05:49:37;21.30;61.80
35363;DHT22;21463;47.480;8.214;2022-09-09T05:50:39;21.40;61.90
35363;DHT22;21463;47.480;8.214;2022-09-09T05:51:42;21.30;61.80
35363;DHT22;21463;47.480;8.214;2022-09-09T05:52:47;21.30;61.80
35363;DHT22;21463;47.480;8.214;2022-09-09T05:53:51;21.30;61.80
35363;DHT22;21463;47.480;8.214;2022-09-09T05:54:54;21.40;61.90
35363;DHT22;21463;47.480;8.214;2022-09-09T05:56:02;21.30;61.80
35363;DHT22;21463;47.480;8.214;2022-09-09T05:57:07;21.40;61.90
35363;DHT22;21463;47.480;8.214;2022-09-09T05:58:10;21.30;61.80
35363;DHT22;21463;47.480;8.214;2022-09-09T05:59:13;21.30;61.80
35363;DHT22;21463;47.480;8.214;2022-09-09T06:00:17;21.30;61.80
35363;DHT22;21463;47.480;8.214;2022-09-09T06:02:25;21.30;61.80
35363;DHT22;21463;47.480;8.214;2022-09-09T06:03:27;21.30;61.80
35363;DHT22;21463;47.480;8.214;2022-09-09T06:04:30;21.30;61.80
35363;DHT22;21463;47.480;8.214;2022-09-09T06:05:35;21.30;61.80
35363;DHT22;21463;47.480;8.214;2022-09-09T06:06:38;21.30;61.80
35363;DHT22;21463;47.480;8.214;2022-09-09T06:07:47;21.30;61.80
35363;DHT22;21463;47.480;8.214;2022-09-09T06:08:54;21.30;61.90
35363;DHT22;21463;47.480;8.214;2022-09-09T06:09:58;21.40;61.90
35363;DHT22;21463;47.480;8.214;2022-09-09T06:11:03;21.30;61.90
35363;DHT22;21463;47.480;8.214;2022-09-09T06:12:06;21.30;61.80
35363;DHT22;21463;47.480;8.214;2022-09-09T06:13:10;21.30;61.80
35363;DHT22;21463;47.480;8.214;2022-09-09T06:14:13;21.30;61.80
35363;DHT22;21463;47.480;8.214;2022-09-09T06:15:19;21.30;61.90
35363;DHT22;21463;47.480;8.214;2022-09-09T06:16:24;21.30;61.80
35363;DHT22;21463;47.480;8.214;2022-09-09T06:17:27;21.30;61.90
35363;DHT22;21463;47.480;8.214;2022-09-09T06:18:29;21.30;61.90
35363;DHT22;21463;47.480;8.214;2022-09-09T06:19:31;21.40;62.00
35363;DHT22;21463;47.480;8.214;2022-09-09T06:20:35;21.30;61.90
35363;DHT22;21463;47.480;8.214;2022-09-09T06:21:38;21.30;61.90
35363;DHT22;21463;47.480;8.214;2022-09-09T06:22:42;21.30;61.90
35363;DHT22;21463;47.480;8.214;2022-09-09T06:23:45;21.30;61.90
35363;DHT22;21463;47.480;8.214;2022-09-09T06:24:48;21.30;61.90
35363;DHT22;21463;47.480;8.214;2022-09-09T06:25:51;21.30;61.90
35363;DHT22;21463;47.480;8.214;2022-09-09T06:27:03;21.30;61.90
35363;DHT22;21463;47.480;8.214;2022-09-09T06:28:09;21.30;61.90
35363;DHT22;21463;47.480;8.214;2022-09-09T06:29:12;21.30;61.90
35363;DHT22;21463;47.480;8.214;2022-09-09T06:30:16;21.30;61.90
35363;DHT22;21463;47.480;8.214;2022-09-09T06:31:21;21.30;61.90
35363;DHT22;21463;47.480;8.214;2022-09-09T06:32:32;21.30;61.90
35363;DHT22;21463;47.480;8.214;2022-09-09T06:33:38;21.30;61.90
35363;DHT22;21463;47.480;8.214;2022-09-09T06:34:44;21.40;62.00
35363;DHT22;21463;47.480;8.214;2022-09-09T06:35:54;21.30;62.40
35363;DHT22;21463;47.480;8.214;2022-09-09T06:36:57;21.30;61.90
35363;DHT22;21463;47.480;8.214;2022-09-09T06:38:04;21.40;62.00
35363;DHT22;21463;47.480;8.214;2022-09-09T06:39:08;21.30;61.90
35363;DHT22;21463;47.480;8.214;2022-09-09T06:40:16;21.30;61.90
35363;DHT22;21463;47.480;8.214;2022-09-09T06:41:22;21.30;61.90
35363;DHT22;21463;47.480;8.214;2022-09-09T06:42:25;21.30;61.90
35363;DHT22;21463;47.480;8.214;2022-09-09T06:43:40;21.30;61.90
35363;DHT22;21463;47.480;8.214;2022-09-09T06:44:42;21.30;62.00
35363;DHT22;21463;47.480;8.214;2022-09-09T06:46:02;21.30;61.90
35363;DHT22;21463;47.480;8.214;2022-09-09T06:47:07;21.30;61.90
35363;DHT22;21463;47.480;8.214;2022-09-09T06:48:10;21.30;62.00
35363;DHT22;21463;47.480;8.214;2022-09-09T06:49:12;21.30;61.90
35363;DHT22;21463;47.480;8.214;2022-09-09T06:50:16;21.30;61.90
35363;DHT22;21463;47.480;8.214;2022-09-09T06:51:22;21.30;62.00
35363;DHT22;21463;47.480;8.214;2022-09-09T06:52:25;21.30;62.00
35363;DHT22;21463;47.480;8.214;2022-09-09T06:53:29;21.30;62.00
35363;DHT22;21463;47.480;8.214;2022-09-09T06:54:33;21.40;62.10
35363;DHT22;21463;47.480;8.214;2022-09-09T06:55:37;21.30;62.00
35363;DHT22;21463;47.480;8.214;2022-09-09T06:56:40;21.30;62.00
35363;DHT22;21463;47.480;8.214;2022-09-09T06:57:50;21.30;62.00
35363;DHT22;21463;47.480;8.214;2022-09-09T06:58:59;21.30;62.00
35363;DHT22;21463;47.480;8.214;2022-09-09T07:00:07;21.30;62.00
35363;DHT22;21463;47.480;8.214;2022-09-09T07:01:11;21.30;62.00
35363;DHT22;21463;47.480;8.214;2022-09-09T07:02:14;21.30;62.00
35363;DHT22;21463;47.480;8.214;2022-09-09T07:03:17;21.30;62.00
35363;DHT22;21463;47.480;8.214;2022-09-09T07:04:19;21.30;62.10
35363;DHT22;21463;47.480;8.214;2022-09-09T07:05:22;21.30;62.10
35363;DHT22;21463;47.480;8.214;2022-09-09T07:06:28;21.40;62.10
35363;DHT22;21463;47.480;8.214;2022-09-09T07:07:32;21.30;62.00
35363;DHT22;21463;47.480;8.214;2022-09-09T07:08:35;21.40;62.10
35363;DHT22;21463;47.480;8.214;2022-09-09T07:09:38;21.40;62.10
35363;DHT22;21463;47.480;8.214;2022-09-09T07:10:40;21.30;62.10
35363;DHT22;21463;47.480;8.214;2022-09-09T07:11:47;21.40;62.10
35363;DHT22;21463;47.480;8.214;2022-09-09T07:12:52;21.30;62.10
35363;DHT22;21463;47.480;8.214;2022-09-09T07:13:58;21.30;62.10
35363;DHT22;21463;47.480;8.214;2022-09-09T07:15:01;21.30;62.10
35363;DHT22;21463;47.480;8.214;2022-09-09T07:16:09;21.30;62.10
35363;DHT22;21463;47.480;8.214;2022-09-09T07:17:11;21.30;62.10
35363;DHT22;21463;47.480;8.214;2022-09-09T07:18:15;21.30;62.10
35363;DHT22;21463;47.480;8.214;2022-09-09T07:19:17;21.40;62.20
35363;DHT22;21463;47.480;8.214;2022-09-09T07:20:22;21.30;62.10
35363;DHT22;21463;47.480;8.214;2022-09-09T07:21:26;21.30;62.10
35363;DHT22;21463;47.480;8.214;2022-09-09T07:22:29;21.30;62.10
35363;DHT22;21463;47.480;8.214;2022-09-09T07:23:32;21.30;62.20
35363;DHT22;21463;47.480;8.214;2022-09-09T07:24:38;21.40;62.20
35363;DHT22;21463;47.480;8.214;2022-09-09T07:25:45;21.30;62.10
35363;DHT22;21463;47.480;8.214;2022-09-09T07:26:50;21.30;62.10
35363;DHT22;21463;47.480;8.214;2022-09-09T07:27:54;21.40;62.20
35363;DHT22;21463;47.480;8.214;2022-09-09T07:28:57;21.30;62.20
35363;DHT22;21463;47.480;8.214;2022-09-09T07:29:59;21.30;62.20